フィレンツェ・ペレトラ空港の過去48時間の天気

フィレンツェ・ペレトラ空港 (Firenze / Peretola)

現在時刻: 10/23 08:24 CEST (10/23 06:24 UTC) 以下の時間は現地時間です。

過去48時間のMETAR気象情報
時間 風向 風速(m/s) 視程 気温(℃) 湿度(%) 気圧(hPa) 天気現象
23 07:50 東北東 3 10km以上 14 67 1022
23 07:20 3 10km以上 15 63 1022
23 06:50 北北東 6 10km以上 15 63 1021
23 06:20 北東 5 10km以上 15 63 1021
23 05:50 4 10km以上 15 63 1021
23 05:20 4 10km以上 16 59 1021
23 04:50 4 10km以上 16 59 1021
23 04:20 3 10km以上 16 55 1021
23 03:50 北北東 5 10km以上 15 59 1021
23 03:20 6 10km以上 16 55 1021
23 02:50 北北東 4 10km以上 16 55 1022
23 02:20 北北東 4 10km以上 16 59 1021
23 01:50 3 10km以上 16 55 1021
23 01:20 3 10km以上 16 55 1021
23 00:50 北東 5 10km以上 16 59 1021
23 00:20 北東 6 10km以上 16 55 1021
22 23:50 北北東 7 10km以上 16 55 1021
22 23:20 北北東 7 10km以上 16 55 1021
22 22:50 北北東 6 10km以上 16 55 1021
22 22:20 北北東 5 10km以上 16 55 1021
22 21:50 北北東 5 10km以上 16 55 1021
22 21:20 北北東 4 10km以上 16 55 1020
22 20:50 北北東 5 10km以上 15 59 1020
22 20:20 北北東 4 10km以上 16 51 1020
22 19:50 北東 3 10km以上 16 51 1020
22 19:20 4 10km以上 16 51 1019
22 18:50 4 10km以上 16 51 1019
22 18:20 4 10km以上 17 48 1018
22 17:50 不定 1 10km以上 17 45 1018
22 17:20 3 10km以上 17 45 1018
22 16:50 6 10km以上 18 42 1018
22 16:20 6 10km以上 18 42 1018
22 15:50 北北東 7 10km以上 18 42 1018
22 15:20 北北東 8 10km以上 18 42 1018
22 14:50 北北東 6 10km以上 18 42 1019
22 14:20 北東 5 10km以上 18 45 1018
22 13:50 北北東 4 10km以上 17 45 1019
22 13:20 4 10km以上 17 45 1019
22 12:50 3 10km以上 16 48 1020
22 12:20 4 10km以上 16 45 1020
22 11:20 北北東 10 10km以上 16 48 1019
22 10:50 北北東 10 10km以上 15 51 1020
22 10:20 北北東 8 10km以上 15 51 1020
22 09:50 北北東 7 10km以上 14 55 1020
22 09:20 3 10km以上 14 55 1020
22 08:50 4 10km以上 13 54 1020
22 08:20 4 10km以上 13 51 1019
22 07:50 北東 6 10km以上 13 51 1019
22 07:20 5 10km以上 13 54 1019
22 06:50 4 10km以上 13 51 1019
22 06:20 北北東 3 10km以上 13 54 1019
22 05:50 北北東 6 10km以上 13 54 1019
22 05:20 北北東 7 10km以上 13 54 1019
22 04:50 北北東 6 10km以上 13 54 1019
22 04:20 北北東 6 10km以上 13 54 1019
22 03:50 北北東 7 10km以上 13 54 1019
22 03:20 北北東 7 10km以上 13 54 1019
22 02:50 北北東 6 10km以上 13 54 1020
22 02:20 北東 4 10km以上 13 54 1020
22 01:50 北北東 7 10km以上 13 54 1020
22 01:20 北北東 6 10km以上 13 54 1020
22 00:50 北東 6 10km以上 13 58 1020
22 00:20 北北東 8 10km以上 13 58 1020
21 23:50 北東 6 10km以上 13 54 1021
21 23:20 北北東 5 10km以上 13 54 1021
21 22:50 北北東 5 10km以上 13 54 1021
21 22:20 不定 1 10km以上 12 54 1021
21 21:50 2 10km以上 12 58 1021
21 21:20 東北東 7 10km以上 13 54 1021
21 20:50 7 10km以上 13 58 1021
21 20:20 東北東 12 10km以上 14 55 1020
21 19:50 北東 13 10km以上 14 55 1019
21 19:20 東北東 13 10km以上 15 59 1018
21 18:50 北東 13 10km以上 15 67 1017 弱い雨
21 18:20 北東 9 10km以上 18 56 1017
21 17:50 北東 8 10km以上 21 46 1015
21 17:20 北北東 5 10km以上 22 43 1015
21 16:50 北北東 4 10km以上 22 46 1015
21 16:20 北北西 4 10km以上 24 38 1015
21 15:50 北東 5 10km以上 24 38 1015
21 15:20 3 10km以上 24 38 1016
21 14:50 北北東 5 10km以上 24 38 1016
21 14:20 北北東 5 10km以上 24 36 1016
21 13:50 3 10km以上 25 34 1016
21 13:20 西 2 10km以上 23 41 1017
21 12:50 不定 1 10km以上 21 46 1017
21 12:20 不定 1 10km以上 21 49 1018
21 11:20 不定 1 10km以上 18 60 1019
21 10:50 不定 1 10km以上 17 63 1019
21 10:20 不定 1 10km以上 16 68 1019
21 09:50 不定 1 10km以上 15 72 1020
21 09:20 不定 1 10km以上 13 82 1020
21 08:50 不定 1 10km以上 11 94 1019
LIRQ 230550Z 06006KT 320V130 9999 FEW040 14/08 Q1022
LIRQ 230520Z 36006KT 310V050 9999 FEW040 15/08 Q1022
LIRQ 230450Z 02011KT 340V050 9999 FEW045 15/08 Q1021
LIRQ 230420Z 04010KT 340V120 9999 SCT045 15/08 Q1021
LIRQ 230350Z VRB08KT 9999 FEW045 15/08 Q1021
LIRQ 230320Z VRB07G24KT 9999 FEW045 16/08 Q1021
LIRQ 230250Z VRB07KT CAVOK 16/08 Q1021
LIRQ 230220Z VRB05KT CAVOK 16/07 Q1021
LIRQ 230150Z 03009G20KT 330V080 CAVOK 15/07 Q1021
LIRQ 230120Z 01011G26KT CAVOK 16/07 Q1021
LIRQ 230050Z 03008G19KT 330V080 CAVOK 16/07 Q1022
LIRQ 230020Z 02008KT 270V070 CAVOK 16/08 Q1021
LIRQ 222350Z 01005KT 310V070 CAVOK 16/07 Q1021
LIRQ 222320Z VRB06KT CAVOK 16/07 Q1021
LIRQ 222250Z 04009G22KT 360V090 CAVOK 16/08 Q1021
LIRQ 222220Z 04011KT CAVOK 16/07 Q1021
LIRQ 222150Z 03013KT CAVOK 16/07 Q1021
LIRQ 222120Z 03013KT CAVOK 16/07 Q1021
LIRQ 222050Z 02012KT 350V050 9999 FEW040 16/07 Q1021
LIRQ 222020Z 03010KT 330V090 9999 FEW040 16/07 Q1021
LIRQ 221950Z 03009G19KT 360V060 9999 FEW040 16/07 Q1021
LIRQ 221920Z 03007KT 360V070 9999 FEW040 16/07 Q1020
LIRQ 221850Z 03009KT 9999 FEW040 15/07 Q1020
LIRQ 221820Z 03008KT 360V060 9999 FEW040 16/06 Q1020
LIRQ 221750Z 04006KT 360V100 CAVOK 16/06 Q1020
LIRQ 221720Z VRB07KT CAVOK 16/06 Q1019
LIRQ 221650Z 01008KT 330V100 CAVOK 16/06 Q1019
LIRQ 221620Z 01008KT 300V100 9999 FEW050 17/06 Q1018
LIRQ 221550Z VRB02KT 9999 FEW050 17/05 Q1018
LIRQ 221520Z VRB05KT 9999 FEW050 17/05 Q1018
LIRQ 221450Z 36012KT 310V030 9999 FEW050 18/05 Q1018
LIRQ 221420Z 35011KT 320V020 9999 FEW050 18/05 Q1018
LIRQ 221350Z 03014KT 360V060 9999 SCT050 18/05 Q1018
LIRQ 221320Z 02015G25KT 330V060 9999 SCT050 18/05 Q1018
LIRQ 221250Z 02011G22KT 330V070 9999 FEW050 18/05 Q1019
LIRQ 221220Z 04009KT 290V090 9999 FEW050 18/06 Q1018
LIRQ 221150Z 03008KT 340V070 9999 FEW050 17/05 Q1019
LIRQ 221120Z 01008KT 320V060 9999 FEW050 17/05 Q1019
LIRQ 221050Z VRB06KT 9999 SCT050 16/05 Q1020 RMK WS RWY 05
LIRQ 221020Z VRB08G21KT 9999 SCT050 16/04 Q1020 RMK WS RWY 05
LIRQ 220920Z 03019KT 9999 SCT060 16/05 Q1019
LIRQ 220850Z 02019KT 360V060 9999 FEW060 15/05 Q1020
LIRQ 220820Z 02015KT 350V050 9999 FEW060 15/05 Q1020
LIRQ 220750Z 02014G25KT 9999 SCT060 14/05 Q1020
LIRQ 220720Z 01006KT 330V060 9999 SCT060 14/05 Q1020
LIRQ 220650Z 01007KT 320V040 9999 FEW060 13/04 Q1020
LIRQ 220620Z VRB07KT 9999 SCT050 13/03 Q1019
LIRQ 220550Z 05011KT 010V090 9999 SCT050 13/03 Q1019
LIRQ 220520Z VRB10KT 9999 SCT050 13/04 Q1019
LIRQ 220450Z VRB07G21KT 9999 SCT050 13/03 Q1019
LIRQ 220420Z 02006KT 330V060 9999 FEW050 13/04 Q1019
LIRQ 220350Z 02011G22KT 340V050 9999 SCT050 13/04 Q1019
LIRQ 220320Z 02013G25KT 320V080 CAVOK 13/04 Q1019
LIRQ 220250Z 02012KT 350V050 CAVOK 13/04 Q1019
LIRQ 220220Z 03011KT 350V060 CAVOK 13/04 Q1019
LIRQ 220150Z 03014G24KT 340V050 CAVOK 13/04 Q1019
LIRQ 220120Z 03013KT 360V060 CAVOK 13/04 Q1019
LIRQ 220050Z 03011KT 350V060 CAVOK 13/04 Q1020
LIRQ 220020Z 04008KT 360V080 CAVOK 13/04 Q1020
LIRQ 212350Z 03014KT 360V060 CAVOK 13/04 Q1020
LIRQ 212320Z 03012KT 360V060 CAVOK 13/04 Q1020
LIRQ 212250Z 04012KT CAVOK 13/05 Q1020
LIRQ 212220Z 03015KT CAVOK 13/05 Q1020
LIRQ 212150Z 04011KT CAVOK 13/04 Q1021
LIRQ 212120Z 03010KT 010V070 CAVOK 13/04 Q1021
LIRQ 212050Z 02010KT 360V060 9999 FEW080 13/04 Q1021
LIRQ 212020Z VRB02KT 9999 SCT080 12/03 Q1021
LIRQ 211950Z 10004KT 010V160 9999 SCT080 12/04 Q1021
LIRQ 211920Z 07013KT 030V110 9999 SCT070 13/04 Q1021
LIRQ 211850Z 09014KT 9999 FEW040 13/05 Q1021
LIRQ 211820Z 06024KT 9999 FEW040 14/05 Q1020
LIRQ 211750Z 05026G37KT 9999 FEW040 14/05 Q1019
LIRQ 211720Z 06025G38KT 9999 SCT040 BKN080 15/07 Q1018
LIRQ 211650Z 05025G39KT 9999 -RA SCT030 BKN080 15/09 Q1017
LIRQ 211620Z 05018G28KT 9999 FEW030 BKN080 18/09 Q1017
LIRQ 211550Z 04016KT 9999 FEW080 21/09 Q1015
LIRQ 211520Z 03009G19KT 330V080 9999 FEW080 22/09 Q1015
LIRQ 211450Z 02007KT 320V050 9999 FEW080 22/10 Q1015
LIRQ 211420Z 34007KT 9999 SCT080 24/09 Q1015
LIRQ 211350Z 04010KT 9999 FEW080 24/09 Q1015
LIRQ 211320Z 01006KT 330V080 9999 SCT080 24/09 Q1016
LIRQ 211250Z 02009KT 9999 SCT070 24/09 Q1016
LIRQ 211220Z 03009KT CAVOK 24/08 Q1016
LIRQ 211150Z 01005KT 290V080 CAVOK 25/08 Q1016
LIRQ 211120Z 27003KT 210V330 CAVOK 23/09 Q1017
LIRQ 211050Z VRB02KT CAVOK 21/09 Q1017
LIRQ 211020Z VRB02KT CAVOK 21/10 Q1018
LIRQ 210920Z VRB02KT CAVOK 18/10 Q1019
LIRQ 210850Z VRB02KT CAVOK 17/10 Q1019
LIRQ 210820Z VRB01KT CAVOK 16/10 Q1019
LIRQ 210750Z VRB01KT CAVOK 15/10 Q1020
LIRQ 210720Z VRB01KT CAVOK 13/10 Q1020
LIRQ 210650Z VRB02KT CAVOK 11/10 Q1019